Mekhanik Cherevko — URAG — position and weather

sailwx.info

Track history (hours):
 
Tides and Currents Weather Stations Pressure Air Temp Water Temp Dewpoint Dewpoint Depression Visibility Wind Speed Wind Dir Waves Ship Positions

Mekhanik Cherevko

Last reported at 2018-Feb-19 11:38 UTC. Time now 2018-Feb-21 07:44 UTC.
Position N 46°33' E 032°13'.

Length 98 m; draft 3.9 m.

Type: Cargo ship. MMSI: 272308000.

Date/timePositionNaut miles runAvg speedWind from/ knotsBaromVisibWave heightAir tempDewpointWater temp
2018-Feb-19 11:38N 46°33' E 032°13'3 8.6
2018-Feb-19 11:17N 46°32' E 032°08'2 8.7
2018-Feb-19 11:00N 46°32' E 032°05'4 8.9
2018-Feb-19 10:30N 46°33' E 031°59'5 9.0
2018-Feb-19 10:00N 46°35' E 031°52'4 9.0
2018-Feb-19 09:30N 46°36' E 031°46'  
2018-Feb-12 23:41N 46°36' E 031°38'2 8.6
2018-Feb-12 23:30N 46°36' E 031°40'4 8.7
2018-Feb-12 23:00N 46°36' E 031°47'4 8.2
2018-Feb-12 22:30N 46°35' E 031°52'4 8.1
2018-Feb-12 22:00N 46°33' E 031°58'6 8.0
2018-Feb-12 21:18N 46°32' E 032°06'  
2018-Feb-10 06:44N 46°32' E 032°10'2 9.0
2018-Feb-10 06:30N 46°32' E 032°07'5 8.8
2018-Feb-10 05:59N 46°33' E 032°01'4 9.1
2018-Feb-10 05:30N 46°34' E 031°55'5 9.0
2018-Feb-10 05:00N 46°36' E 031°48'  
Track history (hours):
 
Tides and Currents Weather Stations Pressure Air Temp Water Temp Dewpoint Dewpoint Depression Visibility Wind Speed Wind Dir Waves Ship Positions

Mekhanik Cherevko

Last reported at 2018-Feb-19 11:38 UTC. Time now 2018-Feb-21 07:44 UTC.
Position N 46°33' E 032°13'.

Length 98 m; draft 3.9 m.

Type: Cargo ship. MMSI: 272308000.

Date/timePositionNaut miles runAvg speedWind from/ knotsBaromVisibWave heightAir tempDewpointWater temp
2018-Feb-19 11:38N 46°33' E 032°13'3 8.6
2018-Feb-19 11:17N 46°32' E 032°08'2 8.7
2018-Feb-19 11:00N 46°32' E 032°05'4 8.9
2018-Feb-19 10:30N 46°33' E 031°59'5 9.0
2018-Feb-19 10:00N 46°35' E 031°52'4 9.0
2018-Feb-19 09:30N 46°36' E 031°46'  
2018-Feb-12 23:41N 46°36' E 031°38'2 8.6
2018-Feb-12 23:30N 46°36' E 031°40'4 8.7
2018-Feb-12 23:00N 46°36' E 031°47'4 8.2
2018-Feb-12 22:30N 46°35' E 031°52'4 8.1
2018-Feb-12 22:00N 46°33' E 031°58'6 8.0
2018-Feb-12 21:18N 46°32' E 032°06'  
2018-Feb-10 06:44N 46°32' E 032°10'2 9.0
2018-Feb-10 06:30N 46°32' E 032°07'5 8.8
2018-Feb-10 05:59N 46°33' E 032°01'4 9.1
2018-Feb-10 05:30N 46°34' E 031°55'5 9.0
2018-Feb-10 05:00N 46°36' E 031°48'  

Dump ship's entire track history